Aviation Digital Data Service (ADDS)

Output produced by METARs form (0443 UTC 31 August 2015)
found at http://www.aviationweather.gov/adds/metars/
 
KESN 310050Z 20008KT 10SM OVC200 27/19 A3012